Airfield :
LOGIN :

Register | Disclaimer

   EN    FR    IT 

 










Legend :    VFR   Marginal VFR   IFR   Intensive IFR   Very Intensive IFR
Visi :
Ceiling :
>= 8 km
>= 3000ft
5 to 8 km
1000 to 3000 ft
1500m to 5 km
500 to 1000 ft
800 to 1500m
200 to 500 ft
< 800m
< 200 ft
Symbols :   Thunderstorms  Fog  Heavy snow  Heavy precipitations  Wind > 20 kt
SIGMETs :     Misc.  Thunderstorms  Icing  Turbulence  Mountain Waves  Volcanic Ashes






- Airport Elevation : 157 ft
- IATA code : LIL


LFQQ - Lille Lesquin

CURRENT METAR :
  • 232130Z AUTO 15005KT CAVOK 14/13 Q1008 BECMG 3000 BR

EXPIRED METARs :
  • 232100Z AUTO 15006KT 8000 NSC 14/12 Q1008 BECMG 3000 BR
  • 232030Z AUTO 07005KT 7000 NSC 14/13 Q1007 BECMG 3000 BR
  • 232000Z AUTO 11004KT 6000 NSC 13/12 Q1008 BECMG 3000 BR
  • 231930Z AUTO VRB02KT 8000 NSC 14/12 Q1008 BECMG 3000 BR
  • 231900Z AUTO 14003KT 8000 NSC 14/12 Q1009 BECMG 3000 BR

TAF AMD TAF LFQQ
Valid from the 23 at 21:00 until the 25 at 00:00 UTC


232140Z 2321/2424 VRB02KT CAVOK
BECMG 2322/2324 3000 BR
BECMG 2403/2405 18010KT 8000 NSW
TEMPO 2405/2412 BKN008
FM241200 20012KT 9999 BKN018
TEMPO 2413/2418 20017G27KT 3000 SHRA BKN013TCU
ATIS : +33 3 20 16 19 54



MET'MAP, your aeronautical weather chart ! - Copyright ORBIFLY December 2007 - Disclaimer

ORBIFLY MET'MAP TEAM :

Programming & Development : Alexandra Zaïnal
Concept & Development : Baudouin d'Aumeries
Co-Development & Prog : Marc-Olivier Méhu
Technical & hardware support : Manuel Goepfert

Contact : metmap@orbifly.com




SOURCES & CREDITS :

   NOAA